createdAt,value
2023-03-15T00:00:59.927Z,42.22
2023-03-15T00:02:03.976Z,42.00
2023-03-15T00:03:07.650Z,41.38
2023-03-15T00:04:11.546Z,42.28
2023-03-15T00:05:15.355Z,43.20
2023-03-15T00:06:19.137Z,43.30
2023-03-15T00:07:22.971Z,42.13
2023-03-15T00:08:26.715Z,40.65
2023-03-15T00:09:30.397Z,39.42
2023-03-15T00:10:34.176Z,41.88
2023-03-15T00:11:37.915Z,41.17
2023-03-15T00:12:42.093Z,40.87
2023-03-15T00:13:46.040Z,41.90
2023-03-15T00:14:52.186Z,43.10
2023-03-15T00:15:59.519Z,41.08
2023-03-15T00:17:03.231Z,43.22
2023-03-15T00:18:07.018Z,41.53
2023-03-15T00:19:11.046Z,41.20
2023-03-15T00:20:15.538Z,45.05
2023-03-15T00:21:19.220Z,43.03
2023-03-15T00:22:22.929Z,41.90
2023-03-15T00:23:27.014Z,42.73
2023-03-15T00:24:30.716Z,42.20
2023-03-15T00:25:34.578Z,42.78
2023-03-15T00:26:38.402Z,44.40
2023-03-15T00:27:42.109Z,43.00
2023-03-15T00:28:46.219Z,42.93
2023-03-15T00:29:51.721Z,43.35
2023-03-15T00:31:05.562Z,42.50
2023-03-15T00:32:09.365Z,42.88
2023-03-15T00:33:13.712Z,42.38
2023-03-15T00:34:17.462Z,44.87
2023-03-15T00:35:21.602Z,44.35
2023-03-15T00:36:26.075Z,42.50
2023-03-15T00:37:30.291Z,43.25
2023-03-15T00:38:34.592Z,43.97
2023-03-15T00:39:38.388Z,45.47
2023-03-15T00:40:42.086Z,43.28
2023-03-15T00:41:45.775Z,43.00
2023-03-15T00:42:49.573Z,40.97
2023-03-15T00:43:53.690Z,42.28
2023-03-15T00:44:58.998Z,43.30
2023-03-15T00:46:03.017Z,43.20
2023-03-15T00:47:06.834Z,42.05
2023-03-15T00:48:10.718Z,40.80
2023-03-15T00:49:14.438Z,40.83
2023-03-15T00:50:18.189Z,41.10
2023-03-15T00:51:23.613Z,40.38
2023-03-15T00:52:27.430Z,40.25
2023-03-15T00:53:31.182Z,41.17
2023-03-15T00:54:34.933Z,40.08
2023-03-15T00:55:38.664Z,39.77
2023-03-15T00:56:42.588Z,38.55
2023-03-15T00:57:47.364Z,35.05
2023-03-15T00:58:51.692Z,37.72
2023-03-15T00:59:55.533Z,39.40
2023-03-15T01:01:00.977Z,38.77
2023-03-15T01:02:06.024Z,39.90
2023-03-15T01:03:09.825Z,37.03
2023-03-15T01:04:13.595Z,37.05
2023-03-15T01:05:17.296Z,38.80
2023-03-15T01:06:23.532Z,39.17
2023-03-15T01:07:27.356Z,39.45
2023-03-15T01:08:31.195Z,39.05
2023-03-15T01:09:34.905Z,43.88
2023-03-15T01:10:38.618Z,39.88
2023-03-15T01:11:42.346Z,40.67
2023-03-15T01:12:46.429Z,37.40
2023-03-15T01:13:50.159Z,39.40
2023-03-15T01:14:53.779Z,37.10
2023-03-15T01:16:00.917Z,40.60
2023-03-15T01:17:04.698Z,36.03
2023-03-15T01:18:08.514Z,35.95
2023-03-15T01:19:17.904Z,35.75
2023-03-15T01:20:21.670Z,33.80
2023-03-15T01:21:25.459Z,36.85
2023-03-15T01:22:29.193Z,36.23
2023-03-15T01:23:32.850Z,35.28
2023-03-15T01:24:36.545Z,34.20
2023-03-15T01:25:40.158Z,31.40
2023-03-15T01:26:43.848Z,35.63
2023-03-15T01:27:47.725Z,32.57
2023-03-15T01:28:52.649Z,31.42
2023-03-15T01:29:59.015Z,32.75
2023-03-15T01:31:04.710Z,31.75
2023-03-15T01:32:09.104Z,32.13
2023-03-15T01:33:12.950Z,29.57
2023-03-15T01:34:17.262Z,30.98
2023-03-15T01:35:21.058Z,33.55
2023-03-15T01:36:25.395Z,29.95
2023-03-15T01:37:29.200Z,31.77
2023-03-15T01:38:33.451Z,30.43
2023-03-15T01:39:37.158Z,31.10
2023-03-15T01:40:43.023Z,30.50
2023-03-15T01:41:46.875Z,29.05
2023-03-15T01:43:06.432Z,28.40
2023-03-15T01:44:14.651Z,27.93
2023-03-15T01:45:50.783Z,28.85
2023-03-15T01:46:56.105Z,30.13
2023-03-15T01:48:00.257Z,28.40
2023-03-15T01:49:07.922Z,29.60
2023-03-15T01:50:13.109Z,29.13
2023-03-15T01:51:21.707Z,30.30
2023-03-15T01:52:27.734Z,29.67
2023-03-15T01:53:33.472Z,30.15
2023-03-15T01:54:42.585Z,28.70
2023-03-15T01:55:46.277Z,30.47
2023-03-15T01:56:53.513Z,28.88
2023-03-15T01:57:59.529Z,30.65
2023-03-15T01:59:06.555Z,31.65
2023-03-15T02:00:13.426Z,30.63
2023-03-15T02:01:18.019Z,28.63
2023-03-15T02:02:25.893Z,29.98
2023-03-15T02:03:34.891Z,30.98
2023-03-15T02:04:43.573Z,30.35
2023-03-15T02:05:50.139Z,31.42
2023-03-15T02:06:58.036Z,30.60
2023-03-15T02:08:02.550Z,32.28
2023-03-15T02:09:10.442Z,32.13
2023-03-15T20:01:45.520Z,16.05
2023-03-15T20:02:49.667Z,16.00
2023-03-15T20:03:53.528Z,15.82
2023-03-15T20:04:57.175Z,15.85
2023-03-15T20:06:05.685Z,15.23
2023-03-15T20:07:09.351Z,17.27
2023-03-15T20:08:13.305Z,15.50
2023-03-15T20:09:17.007Z,16.75
2023-03-15T20:10:21.384Z,17.17
2023-03-15T20:11:25.375Z,17.40
2023-03-15T20:12:29.541Z,16.98
2023-03-15T20:13:33.834Z,17.30
2023-03-15T20:14:37.595Z,15.77
2023-03-15T20:15:41.446Z,16.10
2023-03-15T20:16:47.584Z,15.67
2023-03-15T20:17:51.382Z,16.45
2023-03-15T20:18:55.149Z,15.98
2023-03-15T20:19:58.830Z,16.70
2023-03-15T20:21:02.491Z,16.77
2023-03-15T20:22:06.214Z,16.40
2023-03-15T20:23:10.051Z,15.98
2023-03-15T20:24:13.944Z,17.33
2023-03-15T20:25:19.510Z,16.10
2023-03-15T20:26:23.382Z,15.68
2023-03-15T20:27:34.117Z,17.70
